Time;durP1;ratioP1;P1;durP2;ratioP2;P2;SDS_P1;SDS_P2;PMS_P1;PMS_P2;Temp;Humidity;BMP_temperature;BMP_pressure;BME280_temperature;BME280_humidity;BME280_pressure;Samples;Min_cycle;Max_cycle;Signal;HPM_P1;HPM_P2
2023/11/27 00:01:39;;;;;;;6.50;2.97;;;6.40;99.90;;;;;;4168932;28;20033;-76
2023/11/27 00:03:39;;;;;;;9.52;3.88;;;6.30;99.90;;;;;;4168223;28;20030;-76
2023/11/27 00:05:40;;;;;;;10.00;3.70;;;6.40;99.90;;;;;;4167342;28;20380;-76
2023/11/27 00:07:41;;;;;;;9.25;4.20;;;6.30;99.90;;;;;;4173645;28;20044;-76
2023/11/27 00:09:41;;;;;;;6.00;3.55;;;6.40;99.90;;;;;;4153185;28;20068;-76
2023/11/27 00:11:42;;;;;;;7.47;3.72;;;6.40;99.90;;;;;;4168901;28;20061;-75
2023/11/27 00:13:42;;;;;;;10.20;4.10;;;6.40;99.90;;;;;;4169455;28;20121;-76
2023/11/27 00:15:46;;;;;;;10.05;4.13;;;6.30;99.90;;;;;;4135381;28;22786;-75
2023/11/27 00:17:47;;;;;;;10.05;4.10;;;6.30;99.90;;;;;;4169655;28;20025;-76
2023/11/27 00:19:47;;;;;;;8.00;4.10;;;6.30;99.90;;;;;;4161639;28;20108;-76
2023/11/27 00:21:48;;;;;;;8.80;3.97;;;6.30;99.90;;;;;;4165716;28;20517;-77
2023/11/27 00:23:48;;;;;;;7.55;3.42;;;6.30;99.90;;;;;;4170444;28;20416;-76
2023/11/27 00:25:50;;;;;;;12.00;4.13;;;6.30;99.90;;;;;;4168299;28;20032;-76
2023/11/27 00:27:51;;;;;;;9.30;3.80;;;6.30;99.90;;;;;;4166961;28;20033;-76
2023/11/27 00:29:52;;;;;;;9.57;3.70;;;6.30;99.90;;;;;;4152200;28;20132;-76
2023/11/27 00:31:52;;;;;;;7.07;3.53;;;6.30;99.90;;;;;;4172957;28;20076;-76
2023/11/27 00:33:55;;;;;;;9.90;3.25;;;6.30;99.90;;;;;;4171338;28;20052;-75
2023/11/27 00:35:56;;;;;;;8.32;3.67;;;6.40;99.90;;;;;;4152332;28;20088;-76
2023/11/27 00:37:56;;;;;;;9.63;3.83;;;6.30;99.90;;;;;;4152688;28;20415;-73
2023/11/27 00:39:57;;;;;;;6.35;3.80;;;6.30;99.90;;;;;;4150692;28;20402;-75
2023/11/27 00:41:58;;;;;;;6.60;3.60;;;6.40;99.90;;;;;;4146786;28;20716;-74
2023/11/27 00:43:58;;;;;;;8.70;3.33;;;6.40;99.90;;;;;;4166006;28;20118;-74
2023/11/27 00:45:59;;;;;;;9.82;3.95;;;6.30;99.90;;;;;;4170164;28;20044;-73
2023/11/27 00:48:00;;;;;;;9.27;4.07;;;6.30;99.90;;;;;;4166993;28;20402;-74
2023/11/27 00:50:01;;;;;;;9.77;4.00;;;6.40;99.90;;;;;;4144838;28;20064;-74
2023/11/27 00:52:01;;;;;;;8.20;3.60;;;6.30;99.90;;;;;;4155890;28;20717;-74
2023/11/27 00:54:02;;;;;;;8.20;3.75;;;6.30;99.90;;;;;;4162048;28;20394;-74
2023/11/27 00:56:04;;;;;;;10.32;3.90;;;6.30;99.90;;;;;;4167601;28;20423;-75
2023/11/27 00:58:05;;;;;;;8.07;4.13;;;6.30;99.90;;;;;;4173858;28;20088;-74
2023/11/27 01:00:08;;;;;;;10.25;3.75;;;6.30;99.90;;;;;;4148863;28;20107;-75
2023/11/27 01:02:09;;;;;;;9.43;4.13;;;6.20;99.90;;;;;;4162039;28;20040;-75
2023/11/27 01:04:10;;;;;;;9.18;3.50;;;6.20;99.90;;;;;;4173469;28;20033;-74
2023/11/27 01:06:14;;;;;;;11.75;4.45;;;6.20;99.90;;;;;;4155402;28;20054;-74
2023/11/27 01:08:15;;;;;;;10.95;4.75;;;6.20;99.90;;;;;;4153778;28;20041;-74
2023/11/27 01:10:17;;;;;;;11.27;4.47;;;6.20;99.90;;;;;;4148809;28;20037;-74
2023/11/27 01:12:17;;;;;;;9.43;4.50;;;6.20;99.90;;;;;;4170393;28;20423;-74
2023/11/27 01:14:18;;;;;;;6.30;3.45;;;6.20;99.90;;;;;;4126154;28;20030;-74
2023/11/27 01:16:18;;;;;;;11.23;4.45;;;6.20;99.90;;;;;;4151621;28;20093;-75
2023/11/27 01:18:19;;;;;;;11.25;4.55;;;6.10;99.90;;;;;;4171900;28;20364;-75
2023/11/27 01:20:20;;;;;;;9.98;4.38;;;6.20;99.90;;;;;;4172641;28;20414;-74
2023/11/27 01:22:20;;;;;;;12.57;4.65;;;6.20;99.90;;;;;;4150077;28;20538;-74
2023/11/27 01:24:22;;;;;;;9.18;4.63;;;6.10;99.90;;;;;;4173084;28;20033;-75
2023/11/27 01:26:24;;;;;;;11.50;4.50;;;6.10;99.90;;;;;;4164911;28;20488;-74
2023/11/27 01:28:24;;;;;;;8.65;3.97;;;6.10;99.90;;;;;;4155926;28;20045;-74
2023/11/27 01:30:25;;;;;;;13.38;5.05;;;6.20;99.90;;;;;;4148915;28;20045;-74
2023/11/27 01:32:26;;;;;;;11.32;4.85;;;6.10;99.90;;;;;;4165741;28;20037;-75
2023/11/27 01:34:26;;;;;;;13.80;5.07;;;6.10;99.90;;;;;;4170388;28;20051;-74
2023/11/27 01:36:27;;;;;;;11.15;4.45;;;6.10;99.90;;;;;;4165567;28;20486;-74
2023/11/27 01:38:28;;;;;;;10.10;4.43;;;6.10;99.90;;;;;;4143452;28;20570;-75
2023/11/27 01:40:29;;;;;;;8.65;4.47;;;6.10;99.90;;;;;;4169021;28;20773;-75
2023/11/27 01:42:30;;;;;;;11.82;5.05;;;6.10;99.90;;;;;;4167066;28;20037;-74
2023/11/27 01:44:31;;;;;;;9.40;5.35;;;6.10;99.90;;;;;;4102075;28;20125;-74
2023/11/27 01:46:32;;;;;;;14.25;4.90;;;6.10;99.90;;;;;;4122034;28;20459;-75
2023/11/27 01:48:32;;;;;;;10.10;5.25;;;6.00;99.90;;;;;;4108293;28;20033;-75
2023/11/27 01:50:33;;;;;;;10.95;4.82;;;6.00;99.90;;;;;;4101529;28;20499;-75
2023/11/27 01:52:35;;;;;;;10.77;5.22;;;6.00;99.90;;;;;;4166474;28;20387;-75
2023/11/27 01:54:38;;;;;;;13.45;5.50;;;6.00;99.90;;;;;;4143341;28;20053;-75
2023/11/27 01:56:46;;;;;;;9.35;4.97;;;6.00;99.90;;;;;;4149827;28;20029;-75
2023/11/27 01:58:51;;;;;;;10.73;5.50;;;6.00;99.90;;;;;;4165903;28;20060;-75
2023/11/27 02:00:52;;;;;;;11.85;5.82;;;6.00;99.90;;;;;;4128657;28;20121;-75
2023/11/27 02:02:54;;;;;;;10.60;5.32;;;6.00;99.90;;;;;;4149573;28;20555;-75
2023/11/27 02:04:55;;;;;;;13.23;5.32;;;6.00;99.90;;;;;;4148554;28;20034;-75
2023/11/27 02:06:55;;;;;;;14.27;5.63;;;5.90;99.90;;;;;;4163500;28;20441;-75
2023/11/27 02:08:57;;;;;;;11.48;5.25;;;5.90;99.90;;;;;;4149635;28;20480;-75
2023/11/27 02:10:58;;;;;;;11.57;5.38;;;5.90;99.90;;;;;;4165720;28;20041;-75
2023/11/27 02:12:58;;;;;;;16.67;5.25;;;5.90;99.90;;;;;;4147532;28;20029;-76
2023/11/27 02:14:59;;;;;;;11.52;5.78;;;5.80;99.90;;;;;;4167898;28;20574;-75
2023/11/27 02:16:59;;;;;;;9.00;6.07;;;5.90;99.90;;;;;;4140747;28;20407;-75
2023/11/27 02:19:00;;;;;;;14.05;5.90;;;5.80;99.90;;;;;;4148274;28;20029;-75
2023/11/27 02:21:05;;;;;;;12.43;5.78;;;5.80;99.90;;;;;;4163900;28;20111;-75
2023/11/27 02:23:12;;;;;;;13.68;5.50;;;5.80;99.90;;;;;;4168601;28;20158;-75
2023/11/27 02:25:12;;;;;;;14.45;5.47;;;5.90;99.90;;;;;;4150332;28;20519;-75
2023/11/27 02:27:13;;;;;;;11.43;5.40;;;5.90;99.90;;;;;;4163162;28;20029;-75
2023/11/27 02:29:13;;;;;;;13.05;5.63;;;5.90;99.90;;;;;;4131779;28;20400;-75
2023/11/27 02:31:16;;;;;;;11.32;5.38;;;5.80;99.90;;;;;;4168135;28;20135;-75
2023/11/27 02:33:16;;;;;;;11.20;5.15;;;5.80;99.90;;;;;;4172809;28;20055;-76
2023/11/27 02:35:17;;;;;;;12.43;5.82;;;5.80;99.90;;;;;;4165463;28;20055;-76
2023/11/27 02:37:17;;;;;;;11.85;5.65;;;5.80;99.90;;;;;;4174246;28;20056;-75
2023/11/27 02:39:18;;;;;;;12.10;5.40;;;5.80;99.90;;;;;;4153671;28;20399;-75
2023/11/27 02:41:19;;;;;;;10.57;5.78;;;5.80;99.90;;;;;;4156091;28;20530;-76
2023/11/27 02:43:20;;;;;;;10.63;5.53;;;5.80;99.90;;;;;;4171147;28;20485;-76
2023/11/27 02:45:20;;;;;;;12.23;5.97;;;5.80;99.90;;;;;;4173349;28;20143;-75
2023/11/27 02:47:21;;;;;;;10.15;5.38;;;5.80;99.90;;;;;;4172791;28;20037;-75
2023/11/27 02:49:22;;;;;;;13.25;5.45;;;5.90;99.90;;;;;;4149767;28;20388;-76
2023/11/27 02:51:23;;;;;;;8.20;5.15;;;5.80;99.90;;;;;;4173866;28;20031;-76
2023/11/27 02:53:24;;;;;;;11.35;5.40;;;5.80;99.90;;;;;;4155964;28;20057;-75
2023/11/27 02:55:27;;;;;;;10.18;5.65;;;5.80;99.90;;;;;;4154120;28;20068;-75
2023/11/27 02:57:27;;;;;;;13.55;6.28;;;5.80;99.90;;;;;;4167279;28;20083;-74
2023/11/27 02:59:28;;;;;;;12.15;5.90;;;5.80;99.90;;;;;;4164605;28;20034;-74
2023/11/27 03:01:28;;;;;;;11.82;5.53;;;5.80;99.90;;;;;;4170341;28;22674;-75
2023/11/27 03:03:29;;;;;;;15.02;6.40;;;5.80;99.90;;;;;;4166844;28;20364;-74
2023/11/27 03:05:30;;;;;;;11.50;5.30;;;5.80;99.90;;;;;;4152124;28;20029;-74
2023/11/27 03:07:30;;;;;;;14.07;6.05;;;5.80;99.90;;;;;;4168425;28;20041;-74
2023/11/27 03:09:31;;;;;;;15.07;5.55;;;5.80;99.90;;;;;;4169485;28;20100;-75
2023/11/27 03:11:32;;;;;;;10.27;4.60;;;5.80;99.90;;;;;;4165388;28;20026;-75
2023/11/27 03:13:32;;;;;;;13.65;5.82;;;5.80;99.90;;;;;;4167921;28;20533;-75
2023/11/27 03:15:33;;;;;;;11.23;5.43;;;5.80;99.90;;;;;;4150675;28;20038;-74
2023/11/27 03:17:34;;;;;;;13.02;5.60;;;5.80;99.90;;;;;;4156966;28;20029;-74
2023/11/27 03:19:38;;;;;;;11.68;5.18;;;5.70;99.90;;;;;;4165828;28;20037;-74
2023/11/27 03:21:38;;;;;;;10.63;4.60;;;5.70;99.90;;;;;;4160119;28;20040;-74
2023/11/27 03:23:39;;;;;;;15.43;4.90;;;5.80;99.90;;;;;;4161925;28;20476;-74
2023/11/27 03:25:39;;;;;;;10.98;5.22;;;5.70;99.90;;;;;;4168099;28;20037;-74
2023/11/27 03:27:40;;;;;;;10.55;4.50;;;5.70;99.90;;;;;;4152598;28;20507;-74
2023/11/27 03:29:41;;;;;;;13.60;5.15;;;5.70;99.90;;;;;;4148470;28;20038;-74
2023/11/27 03:31:41;;;;;;;11.40;4.72;;;5.70;99.90;;;;;;4169206;28;20108;-75
2023/11/27 03:33:42;;;;;;;10.30;4.50;;;5.70;99.90;;;;;;4145494;28;20034;-75
2023/11/27 03:35:42;;;;;;;10.27;4.57;;;5.60;99.90;;;;;;4164530;28;20033;-74
2023/11/27 03:37:43;;;;;;;9.80;4.00;;;5.60;99.90;;;;;;4173782;28;20033;-75
2023/11/27 03:39:44;;;;;;;8.90;4.00;;;5.60;99.90;;;;;;4147814;28;20357;-74
2023/11/27 03:41:44;;;;;;;12.60;4.43;;;5.60;99.90;;;;;;4151407;28;20378;-75
2023/11/27 03:43:45;;;;;;;13.20;4.50;;;5.60;99.90;;;;;;4167647;28;20082;-74
2023/11/27 03:45:45;;;;;;;11.98;4.13;;;5.60;99.90;;;;;;4164626;28;20033;-75
2023/11/27 03:47:46;;;;;;;17.27;4.57;;;5.60;99.90;;;;;;4144217;28;20034;-74
2023/11/27 03:49:47;;;;;;;12.02;3.83;;;5.60;99.90;;;;;;4168339;28;20104;-75
2023/11/27 03:51:47;;;;;;;5.80;3.70;;;5.60;99.90;;;;;;4167138;28;20030;-75
2023/11/27 03:53:48;;;;;;;11.20;4.30;;;5.60;99.90;;;;;;4150690;28;20026;-75
2023/11/27 03:55:48;;;;;;;9.93;3.92;;;5.60;99.90;;;;;;4151171;28;20710;-75
2023/11/27 03:57:49;;;;;;;7.40;3.63;;;5.50;99.90;;;;;;4161975;28;20041;-75
2023/11/27 03:59:50;;;;;;;10.05;3.45;;;5.60;99.90;;;;;;4149106;28;20057;-74
2023/11/27 04:01:51;;;;;;;9.80;3.70;;;5.50;99.90;;;;;;4165648;28;20442;-74
2023/11/27 04:03:51;;;;;;;9.05;3.60;;;5.50;99.90;;;;;;4147546;28;20040;-74
2023/11/27 04:05:52;;;;;;;8.00;3.60;;;5.50;99.90;;;;;;4168198;28;20036;-75
2023/11/27 04:07:52;;;;;;;4.90;2.95;;;5.50;99.90;;;;;;4151277;28;20124;-78
2023/11/27 04:09:53;;;;;;;6.70;3.80;;;5.50;99.90;;;;;;4165501;28;20033;-78
2023/11/27 04:11:54;;;;;;;9.00;4.13;;;5.50;99.90;;;;;;4168169;28;20485;-77
2023/11/27 04:13:54;;;;;;;8.15;4.03;;;5.50;99.90;;;;;;4161411;28;20032;-77
2023/11/27 04:15:55;;;;;;;11.38;3.90;;;5.40;99.90;;;;;;4165695;28;20088;-78
2023/11/27 04:17:56;;;;;;;10.82;4.05;;;5.40;99.90;;;;;;4164845;28;20033;-78
2023/11/27 04:19:57;;;;;;;9.98;3.63;;;5.40;99.90;;;;;;4168587;28;20036;-78
2023/11/27 04:21:58;;;;;;;10.95;4.03;;;5.40;99.90;;;;;;4170141;28;20029;-78
2023/11/27 04:24:00;;;;;;;9.68;3.47;;;5.40;99.90;;;;;;4153368;28;20205;-78
2023/11/27 04:26:00;;;;;;;12.45;4.05;;;5.40;99.90;;;;;;4148631;28;20057;-78
2023/11/27 04:28:01;;;;;;;11.25;3.75;;;5.30;99.90;;;;;;4156559;28;20033;-76
2023/11/27 04:30:05;;;;;;;7.20;3.65;;;5.40;99.90;;;;;;4151964;28;20052;-78
2023/11/27 04:32:05;;;;;;;12.65;4.25;;;5.40;99.90;;;;;;4149014;28;20046;-78
2023/11/27 04:34:06;;;;;;;8.85;3.58;;;5.30;99.90;;;;;;4148075;28;20499;-78
2023/11/27 04:36:07;;;;;;;10.70;3.70;;;5.40;99.90;;;;;;4147810;28;20407;-79
2023/11/27 04:38:11;;;;;;;11.35;4.63;;;5.30;99.90;;;;;;4148348;28;20041;-79
2023/11/27 04:40:14;;;;;;;7.97;3.60;;;5.30;99.90;;;;;;4152221;28;20122;-78
2023/11/27 04:42:15;;;;;;;9.45;3.83;;;5.30;99.90;;;;;;4146424;28;20038;-78
2023/11/27 04:44:16;;;;;;;10.95;4.45;;;5.20;99.90;;;;;;4153590;28;20404;-78
2023/11/27 04:46:16;;;;;;;6.68;3.30;;;5.20;99.90;;;;;;4148058;28;20084;-79
2023/11/27 04:48:17;;;;;;;7.72;3.45;;;5.30;99.90;;;;;;4158270;28;20033;-78
2023/11/27 04:50:19;;;;;;;8.90;3.95;;;5.20;99.90;;;;;;4151738;28;20076;-79
2023/11/27 04:52:19;;;;;;;11.98;3.55;;;5.20;99.90;;;;;;4147675;28;20037;-79
2023/11/27 04:54:20;;;;;;;10.25;4.20;;;5.20;99.90;;;;;;4147876;28;20491;-78
2023/11/27 04:56:21;;;;;;;10.30;3.78;;;5.20;99.90;;;;;;4152096;28;20030;-79
2023/11/27 04:58:22;;;;;;;8.10;3.28;;;5.20;99.90;;;;;;4153398;28;20041;-78
2023/11/27 05:00:22;;;;;;;7.90;3.10;;;5.20;99.90;;;;;;4148523;28;20038;-79
2023/11/27 05:02:23;;;;;;;8.63;3.33;;;5.20;99.90;;;;;;4155225;28;20430;-79
2023/11/27 05:04:24;;;;;;;7.22;3.00;;;5.20;99.90;;;;;;4149201;28;20396;-79
2023/11/27 05:06:26;;;;;;;9.52;3.30;;;5.20;99.90;;;;;;4153401;28;20030;-78
2023/11/27 05:08:27;;;;;;;9.73;3.40;;;5.10;99.90;;;;;;4148123;28;20068;-77
2023/11/27 05:10:28;;;;;;;8.95;3.13;;;5.10;99.90;;;;;;4149138;28;20042;-78
2023/11/27 05:12:29;;;;;;;12.05;3.85;;;5.10;99.90;;;;;;4147905;28;20385;-79
2023/11/27 05:14:29;;;;;;;11.00;4.00;;;5.10;99.90;;;;;;4153082;28;20795;-79
2023/11/27 05:16:30;;;;;;;7.88;3.50;;;5.10;99.90;;;;;;4157209;28;20040;-77
2023/11/27 05:18:30;;;;;;;12.27;3.47;;;5.10;99.90;;;;;;4144156;28;20419;-75
2023/11/27 05:20:31;;;;;;;15.32;3.42;;;5.10;99.90;;;;;;4145383;28;20438;-75
2023/11/27 05:22:32;;;;;;;6.10;3.17;;;5.10;99.90;;;;;;4148667;28;20026;-75
2023/11/27 05:24:32;;;;;;;6.85;3.22;;;5.10;99.90;;;;;;4158507;28;20041;-76
2023/11/27 05:26:33;;;;;;;8.45;3.60;;;5.10;99.90;;;;;;4172110;28;20509;-75
2023/11/27 05:28:33;;;;;;;10.68;3.40;;;5.10;99.90;;;;;;4172035;28;20425;-75
2023/11/27 05:30:34;;;;;;;7.43;3.38;;;5.00;99.90;;;;;;4171662;28;20467;-75
2023/11/27 05:32:35;;;;;;;9.85;3.50;;;5.10;99.90;;;;;;4153361;28;20029;-75
2023/11/27 05:34:36;;;;;;;9.10;3.33;;;5.10;99.90;;;;;;4163747;28;20087;-75
2023/11/27 05:36:36;;;;;;;8.27;3.08;;;5.00;99.90;;;;;;4146540;28;20034;-75
2023/11/27 05:38:38;;;;;;;6.95;3.08;;;5.00;99.90;;;;;;4168755;28;20139;-75
2023/11/27 05:40:38;;;;;;;9.35;3.22;;;5.00;99.90;;;;;;4170062;28;20532;-75
2023/11/27 05:42:39;;;;;;;6.78;3.22;;;4.90;99.90;;;;;;4152085;28;20029;-71
2023/11/27 05:44:40;;;;;;;6.20;2.58;;;4.90;99.90;;;;;;4148395;28;20079;-75
2023/11/27 05:46:40;;;;;;;9.45;3.00;;;4.90;99.90;;;;;;4165332;28;20037;-75
2023/11/27 05:48:41;;;;;;;7.40;3.05;;;5.00;99.90;;;;;;4165930;28;20532;-74
2023/11/27 05:50:42;;;;;;;6.80;2.88;;;4.90;99.90;;;;;;4138647;28;20113;-73
2023/11/27 05:52:42;;;;;;;6.57;3.15;;;4.90;99.90;;;;;;4164311;28;20415;-74
2023/11/27 05:54:43;;;;;;;7.60;3.22;;;5.00;99.90;;;;;;4165331;28;20403;-76
2023/11/27 05:56:44;;;;;;;7.80;2.97;;;5.00;99.90;;;;;;4151292;28;20037;-74
2023/11/27 05:58:45;;;;;;;9.32;3.22;;;5.00;99.90;;;;;;4166745;28;20040;-74
2023/11/27 06:00:45;;;;;;;8.38;3.50;;;4.90;99.90;;;;;;4146249;28;20044;-74
2023/11/27 06:02:46;;;;;;;6.43;3.10;;;5.00;99.90;;;;;;4167506;28;20075;-74
2023/11/27 06:04:47;;;;;;;9.25;3.33;;;5.00;99.90;;;;;;4172252;28;20112;-74
2023/11/27 06:06:47;;;;;;;11.55;3.83;;;5.00;99.90;;;;;;4172668;28;20021;-74
2023/11/27 06:08:49;;;;;;;8.98;3.33;;;5.00;99.90;;;;;;4173168;28;20033;-75
2023/11/27 06:10:50;;;;;;;7.43;3.40;;;4.90;99.90;;;;;;4131755;28;20045;-73
2023/11/27 06:12:50;;;;;;;7.45;3.58;;;5.00;99.90;;;;;;4151777;28;20491;-73
2023/11/27 06:14:51;;;;;;;11.10;4.30;;;5.00;99.90;;;;;;4171128;28;20045;-74
2023/11/27 06:16:52;;;;;;;7.47;3.72;;;4.90;99.90;;;;;;4169762;28;20042;-74
2023/11/27 06:18:53;;;;;;;10.55;4.55;;;5.00;99.90;;;;;;4158510;28;20533;-73
2023/11/27 06:20:53;;;;;;;10.80;4.57;;;5.00;99.90;;;;;;4174144;28;20495;-73
2023/11/27 06:22:57;;;;;;;6.03;3.42;;;5.00;99.90;;;;;;4172171;28;20549;-75
2023/11/27 06:24:58;;;;;;;9.25;4.10;;;5.10;99.90;;;;;;4170948;28;20581;-74
2023/11/27 06:26:59;;;;;;;8.83;4.50;;;5.00;99.90;;;;;;4151642;28;20032;-74
2023/11/27 06:29:00;;;;;;;6.85;3.75;;;5.10;99.90;;;;;;4144053;28;20460;-76
2023/11/27 06:31:00;;;;;;;6.80;3.78;;;5.10;99.90;;;;;;4161584;28;20053;-76
2023/11/27 06:33:01;;;;;;;8.07;4.00;;;5.10;99.90;;;;;;4160882;28;20112;-76
2023/11/27 06:35:02;;;;;;;10.13;4.32;;;5.10;99.90;;;;;;4170946;28;20077;-76
2023/11/27 06:37:03;;;;;;;9.38;4.28;;;5.10;99.90;;;;;;4165963;28;20040;-76
2023/11/27 06:39:03;;;;;;;11.60;4.85;;;5.10;99.90;;;;;;4146466;28;20026;-76
2023/11/27 06:41:05;;;;;;;11.48;4.32;;;5.10;99.90;;;;;;4168687;28;20048;-76
2023/11/27 06:43:06;;;;;;;7.00;3.72;;;5.10;99.90;;;;;;4172499;28;20041;-76
2023/11/27 06:45:07;;;;;;;11.65;4.10;;;5.10;99.90;;;;;;4170793;28;20071;-76
2023/11/27 06:47:08;;;;;;;8.75;4.13;;;5.20;99.90;;;;;;4152918;28;20565;-75
2023/11/27 06:49:09;;;;;;;11.00;4.18;;;5.20;99.90;;;;;;4169340;28;20053;-77
2023/11/27 06:51:09;;;;;;;9.15;4.28;;;5.10;99.90;;;;;;4166467;28;20120;-75
2023/11/27 06:53:10;;;;;;;11.93;4.22;;;5.10;99.90;;;;;;4166887;28;20568;-75
2023/11/27 06:55:11;;;;;;;9.23;4.20;;;5.10;99.90;;;;;;4163613;28;20388;-76
2023/11/27 06:57:12;;;;;;;7.25;4.00;;;5.10;99.90;;;;;;4154177;28;20163;-77
2023/11/27 06:59:13;;;;;;;6.47;3.10;;;5.10;99.90;;;;;;4169179;28;20037;-77
2023/11/27 07:01:13;;;;;;;7.78;4.00;;;5.10;99.90;;;;;;4168713;28;20184;-76
2023/11/27 07:03:14;;;;;;;11.05;3.53;;;5.10;99.90;;;;;;4169730;28;20414;-77
2023/11/27 07:05:15;;;;;;;5.85;3.10;;;5.10;99.90;;;;;;4170261;28;20485;-76
2023/11/27 07:07:15;;;;;;;8.77;3.35;;;5.10;99.90;;;;;;4168592;28;20506;-76
2023/11/27 07:09:16;;;;;;;7.15;3.38;;;5.10;99.90;;;;;;4151430;28;20494;-75
2023/11/27 07:11:17;;;;;;;8.80;3.60;;;5.10;99.90;;;;;;4168428;28;20455;-76
2023/11/27 07:13:17;;;;;;;7.90;3.58;;;5.10;99.90;;;;;;4154154;28;21327;-76
2023/11/27 07:15:18;;;;;;;10.68;3.60;;;5.10;99.90;;;;;;4152452;28;20033;-78
2023/11/27 07:17:20;;;;;;;6.50;3.22;;;5.10;99.90;;;;;;4167935;28;20079;-77
2023/11/27 07:19:21;;;;;;;6.70;3.25;;;5.10;99.90;;;;;;4169456;28;20116;-76
2023/11/27 07:21:21;;;;;;;5.95;3.15;;;5.10;99.90;;;;;;4151682;28;20118;-77
2023/11/27 07:23:22;;;;;;;9.38;3.58;;;5.10;99.90;;;;;;4169691;28;20486;-77
2023/11/27 07:25:23;;;;;;;5.22;2.67;;;5.20;99.90;;;;;;4159063;28;20481;-77
2023/11/27 07:27:24;;;;;;;7.90;3.05;;;5.20;99.90;;;;;;4167340;28;20072;-75
2023/11/27 07:29:24;;;;;;;7.00;3.13;;;5.10;99.90;;;;;;4169658;28;20029;-75
2023/11/27 07:31:29;;;;;;;7.75;3.08;;;5.20;99.90;;;;;;4149237;28;20038;-75
2023/11/27 07:33:30;;;;;;;6.70;2.70;;;5.20;99.90;;;;;;4151544;28;20048;-75
2023/11/27 07:35:31;;;;;;;9.52;3.42;;;5.20;99.90;;;;;;4149496;28;20042;-75
2023/11/27 07:37:31;;;;;;;8.00;2.55;;;5.20;99.90;;;;;;4147499;28;20100;-75
2023/11/27 07:39:32;;;;;;;7.45;3.28;;;5.20;99.90;;;;;;4158467;28;20064;-75
2023/11/27 07:41:34;;;;;;;6.97;2.85;;;5.20;99.90;;;;;;4152056;28;20851;-75
2023/11/27 07:43:35;;;;;;;4.45;2.55;;;5.20;99.90;;;;;;4171749;28;20041;-75
2023/11/27 07:45:35;;;;;;;4.65;2.40;;;5.20;99.90;;;;;;4168407;28;20410;-75
2023/11/27 07:47:36;;;;;;;8.23;3.40;;;5.20;99.90;;;;;;4170200;28;20033;-75
2023/11/27 07:49:36;;;;;;;6.75;2.70;;;5.10;99.90;;;;;;4136113;28;20115;-75
2023/11/27 07:51:37;;;;;;;4.15;2.30;;;5.10;99.90;;;;;;4170251;28;20036;-75
2023/11/27 07:53:38;;;;;;;5.43;2.50;;;5.10;99.90;;;;;;4170913;28;20048;-75
2023/11/27 07:55:40;;;;;;;5.80;2.63;;;5.10;99.90;;;;;;4170507;28;20104;-75
2023/11/27 07:57:40;;;;;;;6.28;2.60;;;5.10;99.90;;;;;;4152899;28;20041;-75
2023/11/27 07:59:43;;;;;;;5.25;2.80;;;5.00;99.90;;;;;;4168988;28;20029;-75
2023/11/27 08:01:44;;;;;;;;;;;5.00;99.90;;;;;;4168220;28;20082;-75
2023/11/27 08:03:45;;;;;;;5.47;2.47;;;5.00;99.90;;;;;;4151899;28;19932;-75
2023/11/27 08:05:47;;;;;;;4.70;2.20;;;5.00;99.90;;;;;;4169000;28;20044;-75
2023/11/27 08:07:49;;;;;;;6.30;2.40;;;5.00;99.90;;;;;;4151722;28;20491;-75
2023/11/27 08:09:50;;;;;;;3.70;2.20;;;5.00;99.90;;;;;;4167213;28;20041;-75
2023/11/27 08:11:50;;;;;;;7.35;2.72;;;5.00;99.90;;;;;;4151173;28;20084;-75
2023/11/27 08:13:51;;;;;;;3.70;1.92;;;5.00;99.90;;;;;;4169415;28;20078;-75
2023/11/27 08:15:53;;;;;;;5.07;2.25;;;5.10;99.90;;;;;;4168067;28;20252;-75
2023/11/27 08:18:00;;;;;;;4.75;2.40;;;5.10;99.90;;;;;;4169196;28;20032;-75
2023/11/27 08:20:05;;;;;;;4.97;2.55;;;5.10;99.90;;;;;;4170017;28;21052;-75
2023/11/27 08:22:06;;;;;;;6.70;2.80;;;5.10;99.90;;;;;;4170246;28;20490;-75
2023/11/27 08:24:08;;;;;;;6.68;2.50;;;5.00;99.90;;;;;;4153745;28;20153;-74
2023/11/27 08:26:09;;;;;;;4.93;2.30;;;5.00;99.90;;;;;;4166793;28;20041;-75
2023/11/27 08:28:10;;;;;;;6.82;2.88;;;5.10;99.90;;;;;;4169453;28;20036;-75
2023/11/27 08:30:11;;;;;;;6.75;2.80;;;5.10;99.90;;;;;;4168369;28;20619;-75
2023/11/27 08:32:12;;;;;;;5.68;2.58;;;5.10;99.90;;;;;;4149592;28;20487;-75
2023/11/27 08:34:13;;;;;;;4.35;2.05;;;5.10;99.90;;;;;;4169531;28;20044;-74
2023/11/27 08:36:14;;;;;;;6.10;2.50;;;5.10;99.90;;;;;;4169677;28;20048;-75
2023/11/27 08:38:14;;;;;;;5.45;2.55;;;5.10;99.90;;;;;;4169083;28;20052;-74
2023/11/27 08:40:16;;;;;;;7.43;2.70;;;5.10;99.90;;;;;;4168695;28;20036;-75
2023/11/27 08:42:16;;;;;;;4.90;2.33;;;5.10;99.90;;;;;;4168221;28;21399;-75
2023/11/27 08:44:17;;;;;;;3.85;2.33;;;5.10;99.90;;;;;;4159224;28;20037;-75
2023/11/27 08:46:19;;;;;;;5.20;2.58;;;5.10;99.90;;;;;;4148576;28;20033;-74
2023/11/27 08:48:19;;;;;;;4.45;2.10;;;5.10;99.90;;;;;;4168810;28;20124;-75
2023/11/27 08:50:27;;;;;;;5.20;2.38;;;5.10;99.90;;;;;;4133289;28;20069;-75
2023/11/27 08:52:27;;;;;;;4.32;2.33;;;5.10;99.90;;;;;;4169684;28;20041;-75
2023/11/27 08:54:32;;;;;;;3.90;2.50;;;5.10;99.90;;;;;;4171392;28;20403;-75
2023/11/27 08:56:33;;;;;;;5.03;2.13;;;5.10;99.90;;;;;;4150243;28;20084;-75
2023/11/27 08:58:36;;;;;;;4.87;2.17;;;5.10;99.90;;;;;;4168909;28;20042;-75
2023/11/27 09:00:37;;;;;;;4.93;2.30;;;5.20;99.90;;;;;;4168124;28;20530;-75
2023/11/27 09:02:38;;;;;;;3.42;2.03;;;5.20;99.90;;;;;;4168599;28;20064;-75
2023/11/27 09:04:39;;;;;;;4.20;2.42;;;5.10;99.90;;;;;;4170027;28;20059;-75
2023/11/27 09:06:40;;;;;;;2.88;2.05;;;5.20;99.90;;;;;;4169601;28;20706;-76
2023/11/27 09:08:40;;;;;;;4.15;2.35;;;5.10;99.90;;;;;;4151605;28;20044;-74
2023/11/27 09:10:41;;;;;;;2.83;2.13;;;5.20;99.90;;;;;;4167325;28;20094;-75
2023/11/27 09:12:42;;;;;;;3.45;2.30;;;5.20;99.90;;;;;;4167341;28;20474;-74
2023/11/27 09:14:42;;;;;;;4.70;2.42;;;5.10;99.90;;;;;;4168331;28;20183;-75
2023/11/27 09:16:43;;;;;;;6.00;2.50;;;5.10;99.90;;;;;;4165213;28;20065;-75
2023/11/27 09:18:43;;;;;;;3.13;2.20;;;5.10;99.90;;;;;;4166638;28;21235;-75
2023/11/27 09:20:44;;;;;;;5.00;2.58;;;5.10;99.90;;;;;;4150690;28;20478;-75
2023/11/27 09:22:45;;;;;;;4.30;2.20;;;5.10;99.90;;;;;;4167504;28;20032;-75
2023/11/27 09:24:45;;;;;;;4.38;2.38;;;5.10;99.90;;;;;;4169772;28;20045;-75
2023/11/27 09:26:47;;;;;;;5.85;2.53;;;5.10;99.90;;;;;;4149219;28;20033;-75
2023/11/27 09:28:47;;;;;;;4.90;2.15;;;5.10;99.90;;;;;;4167778;28;20038;-75
2023/11/27 09:30:48;;;;;;;3.97;2.15;;;5.10;99.90;;;;;;4166143;28;20075;-75
2023/11/27 09:32:49;;;;;;;5.28;2.47;;;5.10;99.90;;;;;;4167835;28;20033;-75
2023/11/27 09:34:50;;;;;;;4.25;2.30;;;5.10;99.90;;;;;;4149407;28;20038;-74
2023/11/27 09:36:50;;;;;;;4.00;2.05;;;5.10;99.90;;;;;;4168059;28;20052;-75
2023/11/27 09:38:51;;;;;;;2.85;1.70;;;5.10;99.90;;;;;;4149401;28;20041;-76
2023/11/27 09:40:53;;;;;;;2.88;2.03;;;5.10;99.90;;;;;;4151030;28;20026;-75
2023/11/27 09:42:53;;;;;;;3.42;1.83;;;5.10;99.90;;;;;;4150256;28;20041;-75
2023/11/27 09:44:54;;;;;;;4.10;2.15;;;5.10;99.90;;;;;;4134105;28;20037;-75
2023/11/27 09:46:57;;;;;;;5.93;2.30;;;5.10;99.90;;;;;;4149507;28;20113;-75
2023/11/27 09:49:08;;;;;;;4.97;2.13;;;5.10;99.90;;;;;;4158008;28;20670;-74
2023/11/27 09:51:12;;;;;;;4.72;2.05;;;5.10;99.90;;;;;;4167865;28;20067;-76
2023/11/27 09:53:16;;;;;;;3.72;2.17;;;5.10;99.90;;;;;;4150106;28;20060;-75
2023/11/27 09:55:20;;;;;;;4.07;1.83;;;5.10;99.90;;;;;;4168976;28;20068;-74
2023/11/27 09:57:22;;;;;;;3.78;1.88;;;5.10;99.90;;;;;;4166358;28;20053;-75
2023/11/27 09:59:24;;;;;;;3.42;2.08;;;5.10;99.90;;;;;;4149831;28;20097;-75
2023/11/27 10:01:29;;;;;;;6.55;2.58;;;5.10;99.90;;;;;;4168543;28;20041;-74
2023/11/27 10:03:30;;;;;;;4.15;1.98;;;5.20;99.90;;;;;;4163196;28;20116;-73
2023/11/27 10:05:31;;;;;;;3.65;2.10;;;5.20;99.90;;;;;;4169105;28;20057;-73
2023/11/27 10:07:34;;;;;;;5.80;2.50;;;5.20;99.90;;;;;;4151708;28;20033;-74
2023/11/27 10:09:35;;;;;;;4.15;2.00;;;5.20;99.90;;;;;;4150427;28;20180;-74
2023/11/27 10:11:36;;;;;;;4.68;2.00;;;5.20;99.90;;;;;;4141667;28;20073;-74
2023/11/27 10:13:37;;;;;;;3.17;2.05;;;5.10;99.90;;;;;;4152068;28;20060;-74
2023/11/27 10:15:38;;;;;;;2.70;1.60;;;5.20;99.90;;;;;;4166753;28;20564;-72
2023/11/27 10:17:41;;;;;;;2.88;1.95;;;5.20;99.90;;;;;;4167917;28;20157;-74
2023/11/27 10:19:42;;;;;;;3.83;2.25;;;5.10;99.90;;;;;;4148846;28;20049;-74
2023/11/27 10:21:45;;;;;;;;;;;5.10;99.90;;;;;;4168060;28;20041;-74
2023/11/27 10:23:46;;;;;;;2.85;1.85;;;5.10;99.90;;;;;;4168974;28;19932;-76
2023/11/27 10:25:55;;;;;;;2.60;1.70;;;5.20;99.90;;;;;;4166207;28;20025;-77
2023/11/27 10:27:57;;;;;;;3.20;2.15;;;5.20;99.90;;;;;;4167755;28;20571;-77
2023/11/27 10:30:03;;;;;;;3.17;2.05;;;5.10;99.90;;;;;;4166802;28;20033;-77
2023/11/27 10:32:03;;;;;;;3.45;2.30;;;5.20;99.90;;;;;;4166778;28;20041;-77
2023/11/27 10:34:05;;;;;;;6.28;2.42;;;5.20;99.90;;;;;;4151164;28;20043;-77
2023/11/27 10:36:06;;;;;;;3.40;2.10;;;5.20;99.90;;;;;;4151454;28;20096;-74